Terminal Aerodrome Forecast
Issued by NWS

Home | Current Version | Previous Version | Text Only | Print | Product List | Glossary On
Versions: 1 2 3 4 5 6 7 8 9 10 11 12 13 14 15 16 17 18 19
000
FTUS43 KJKL 281139
TAFSME
TAF
KSME 281139Z 2812/2912 20005KT 6SM -SHRA BR VCTS BKN025CB
     FM281300 23008KT P6SM BKN025
     FM281600 24010G20KT P6SM VCTS SCT035CB BKN060
     FM282200 27006KT P6SM SCT250
     FM290400 00000KT 4SM BR FEW250=

USA.gov is the U.S. government's official web portal to all federal, state and local government web resources and services.